createdAt,value
2023-12-14T00:00:50.752Z,1046.20
2023-12-14T00:01:50.706Z,1046.70
2023-12-14T00:02:50.732Z,1039.50
2023-12-14T00:03:50.696Z,1082.00
2023-12-14T00:04:50.657Z,1037.50
2023-12-14T00:05:50.630Z,1016.30
2023-12-14T00:06:50.712Z,1074.70
2023-12-14T00:07:50.640Z,1064.40
2023-12-14T00:08:50.605Z,1035.30
2023-12-14T00:09:50.601Z,1088.20
2023-12-14T00:10:50.611Z,1084.90
2023-12-14T00:11:50.593Z,1063.10
2023-12-14T00:12:50.578Z,1068.20
2023-12-14T00:13:50.559Z,1067.80
2023-12-14T00:14:50.524Z,1052.90
2023-12-14T00:15:50.534Z,1072.50
2023-12-14T00:16:50.588Z,1107.70
2023-12-14T00:17:50.513Z,1077.50
2023-12-14T00:18:50.512Z,1063.00
2023-12-14T00:19:50.522Z,1079.90
2023-12-14T00:20:50.480Z,1026.50
2023-12-14T00:21:50.450Z,1050.60
2023-12-14T00:22:50.443Z,1047.30
2023-12-14T00:23:50.425Z,1062.60
2023-12-14T00:24:50.432Z,1049.30
2023-12-14T00:25:50.481Z,1049.90
2023-12-14T00:26:50.403Z,1077.40
2023-12-14T00:27:50.378Z,1041.70
2023-12-14T00:28:50.406Z,1040.80
2023-12-14T00:29:50.369Z,1013.50
2023-12-14T00:30:50.457Z,1036.40
2023-12-14T00:31:50.345Z,1061.10
2023-12-14T00:32:50.421Z,1047.40
2023-12-14T00:33:50.490Z,1104.90
2023-12-14T00:34:50.385Z,1022.20
2023-12-14T00:35:50.285Z,1035.30
2023-12-14T00:36:50.292Z,1041.00
2023-12-14T00:37:50.306Z,1020.00
2023-12-14T00:38:50.251Z,1027.20
2023-12-14T00:39:50.267Z,1059.20
2023-12-14T00:40:50.276Z,1007.70
2023-12-14T00:41:50.219Z,1051.80
2023-12-14T00:42:50.209Z,1013.90
2023-12-14T00:43:50.255Z,1046.20
2023-12-14T00:44:50.205Z,1000.20
2023-12-14T00:45:50.217Z,1014.30
2023-12-14T00:46:50.198Z,1051.90
2023-12-14T00:47:50.190Z,1061.10
2023-12-14T00:48:50.172Z,1036.70
2023-12-14T00:49:50.184Z,1022.70
2023-12-14T00:50:50.121Z,1032.60
2023-12-14T00:51:50.114Z,999.70
2023-12-14T00:52:50.135Z,1026.60
2023-12-14T00:53:50.091Z,1017.50
2023-12-14T00:54:50.079Z,969.60
2023-12-14T00:55:50.099Z,1013.70
2023-12-14T00:56:50.048Z,993.10
2023-12-14T00:57:50.068Z,968.30
2023-12-14T00:58:50.145Z,987.40
2023-12-14T00:59:50.113Z,987.10
2023-12-14T01:00:50.100Z,994.30
2023-12-14T01:01:50.013Z,1024.40
2023-12-14T01:02:50.085Z,1026.30
2023-12-14T01:03:50.010Z,995.70
2023-12-14T01:04:50.002Z,1032.20
2023-12-14T01:05:49.987Z,1035.80
2023-12-14T01:06:49.948Z,1021.50
2023-12-14T01:07:50.051Z,1047.40
2023-12-14T01:08:49.931Z,1004.90
2023-12-14T01:09:49.904Z,1033.80
2023-12-14T01:10:49.953Z,1100.80
2023-12-14T01:11:49.897Z,1007.90
2023-12-14T01:12:49.909Z,1030.60
2023-12-14T01:13:49.909Z,1063.10
2023-12-14T01:14:49.862Z,1054.00
2023-12-14T01:15:49.827Z,1030.00
2023-12-14T01:16:49.876Z,1033.80
2023-12-14T01:17:49.962Z,1026.00
2023-12-14T01:18:49.965Z,1095.50
2023-12-14T01:19:49.818Z,1008.10
2023-12-14T01:20:49.790Z,955.60
2023-12-14T01:21:49.782Z,1010.00
2023-12-14T01:22:49.779Z,1010.90
2023-12-14T01:23:49.743Z,1003.80
2023-12-14T01:24:49.767Z,1042.50
2023-12-14T01:25:49.905Z,1012.60
2023-12-14T01:26:49.727Z,1021.90
2023-12-14T01:27:49.694Z,1038.40
2023-12-14T01:28:49.739Z,1008.60
2023-12-14T01:29:49.678Z,1036.50
2023-12-14T01:30:49.729Z,1037.10
2023-12-14T01:31:49.714Z,1009.50
2023-12-14T01:32:49.716Z,1025.50
2023-12-14T01:33:49.714Z,1138.30
2023-12-14T01:34:49.706Z,1032.60
2023-12-14T01:35:49.627Z,1000.70
2023-12-14T01:36:49.605Z,1040.30
2023-12-14T01:37:49.657Z,1014.60
2023-12-14T01:38:49.571Z,1001.20
2023-12-14T01:39:49.580Z,1054.60
2023-12-14T01:40:49.666Z,1042.00
2023-12-14T01:41:49.545Z,995.20
2023-12-14T01:42:49.541Z,1063.20
2023-12-14T01:43:49.572Z,1060.60
2023-12-14T01:44:49.535Z,1063.50
2023-12-14T01:45:49.503Z,1091.60
2023-12-14T01:46:49.526Z,1101.70
2023-12-14T01:47:49.604Z,1077.00
2023-12-14T01:48:49.532Z,1065.60
2023-12-14T01:49:49.491Z,1033.10
2023-12-14T01:50:49.441Z,1062.90
2023-12-14T01:51:49.447Z,1138.40
2023-12-14T01:52:49.465Z,1053.40
2023-12-14T01:53:49.424Z,1073.20
2023-12-14T01:54:49.396Z,1067.60
2023-12-14T01:55:49.423Z,1071.80
2023-12-14T01:56:49.394Z,1112.30
2023-12-14T01:57:49.378Z,1131.20
2023-12-14T01:58:49.589Z,1092.90
2023-12-14T01:59:49.351Z,1109.70
2023-12-14T02:00:49.361Z,1118.40
2023-12-14T02:01:49.355Z,1092.20
2023-12-14T02:02:49.749Z,1157.40
2023-12-14T02:03:49.354Z,1108.60
2023-12-14T02:04:49.312Z,1072.30
2023-12-14T02:05:49.297Z,1152.50
2023-12-14T02:06:49.263Z,1110.70
2023-12-14T02:07:49.296Z,1079.40
2023-12-14T02:08:49.244Z,1080.70
2023-12-14T02:09:49.242Z,1100.20
2023-12-14T02:10:49.372Z,1065.40
2023-12-14T02:11:49.353Z,1076.70
2023-12-14T02:12:49.739Z,1140.50
2023-12-14T02:13:49.304Z,1125.10
2023-12-14T02:14:49.177Z,1115.40
2023-12-14T02:15:49.168Z,1070.40
2023-12-14T02:16:49.210Z,1130.80
2023-12-14T02:17:49.233Z,1074.10
2023-12-14T02:18:49.225Z,1164.80
2023-12-14T02:19:49.241Z,1119.90
2023-12-14T02:20:49.121Z,1108.20
2023-12-14T02:21:49.119Z,1170.00
2023-12-14T02:22:49.133Z,1215.40
2023-12-14T02:23:49.075Z,1174.30
2023-12-14T02:24:49.073Z,1084.90
2023-12-14T02:25:49.079Z,1142.20
2023-12-14T02:27:02.103Z,1211.70
2023-12-14T02:27:50.033Z,1100.70
2023-12-14T02:28:49.060Z,1005.50
2023-12-14T02:29:49.016Z,1025.70
2023-12-14T02:30:49.021Z,1097.00
2023-12-14T02:31:49.028Z,1093.50
2023-12-14T02:32:48.991Z,1214.40
2023-12-14T02:33:49.042Z,1321.80
2023-12-14T02:34:48.981Z,1371.50
2023-12-14T02:35:48.951Z,1245.50
2023-12-14T02:36:48.948Z,1174.60
2023-12-14T02:37:48.991Z,1074.80
2023-12-14T02:38:49.070Z,1103.20
2023-12-14T02:39:48.898Z,1036.20
2023-12-14T02:40:48.930Z,1033.30
2023-12-14T02:41:48.876Z,1040.50
2023-12-14T02:42:48.862Z,1122.20
2023-12-14T02:43:48.892Z,1222.70
2023-12-14T02:44:48.860Z,1413.90
2023-12-14T02:45:48.839Z,1821.70
2023-12-14T02:46:48.833Z,1089.40
2023-12-14T02:47:48.842Z,1059.40
2023-12-14T02:48:48.837Z,1057.80
2023-12-14T02:49:48.860Z,1053.80
2023-12-14T02:50:48.799Z,1072.80
2023-12-14T02:51:48.754Z,1095.90
2023-12-14T02:52:48.805Z,1243.40
2023-12-14T02:53:48.752Z,1251.60
2023-12-14T02:54:48.734Z,1193.70
2023-12-14T02:55:48.740Z,1268.50
2023-12-14T02:56:48.702Z,1185.00
2023-12-14T02:57:48.677Z,1121.80
2023-12-14T02:58:48.691Z,1058.90
2023-12-14T02:59:48.668Z,1011.90
2023-12-14T03:00:48.725Z,1045.00
2023-12-14T03:01:48.664Z,1086.40
2023-12-14T03:02:48.623Z,1251.50
2023-12-14T03:03:48.646Z,1215.40
2023-12-14T03:04:48.649Z,1240.50
2023-12-14T03:05:48.603Z,1200.70
2023-12-14T03:06:48.590Z,1098.50
2023-12-14T03:07:48.580Z,1125.90
2023-12-14T03:08:48.563Z,1013.00
2023-12-14T03:09:48.542Z,1111.70
2023-12-14T03:10:48.576Z,1076.20
2023-12-14T03:11:48.520Z,1097.50
2023-12-14T03:12:48.508Z,1059.60
2023-12-14T03:13:48.543Z,1023.40
2023-12-14T03:14:48.496Z,1070.60
2023-12-14T03:15:48.474Z,1089.90
2023-12-14T03:16:48.535Z,1279.80
2023-12-14T03:17:48.527Z,1200.30
2023-12-14T03:18:48.516Z,1403.30
2023-12-14T03:19:48.460Z,1352.70
2023-12-14T03:20:48.483Z,1095.90
2023-12-14T03:21:48.412Z,1066.80
2023-12-14T03:22:48.426Z,1133.40
2023-12-14T03:23:48.379Z,1146.00
2023-12-14T03:24:48.384Z,1164.20
2023-12-14T03:25:48.409Z,1079.90
2023-12-14T03:26:48.359Z,1141.30
2023-12-14T03:27:48.354Z,1124.40
2023-12-14T03:28:48.346Z,1126.70
2023-12-14T03:29:48.331Z,1109.90
2023-12-14T03:30:48.388Z,1080.10
2023-12-14T03:31:48.329Z,1089.10
2023-12-14T03:32:48.426Z,1060.80
2023-12-14T03:33:48.328Z,1061.80
2023-12-14T03:34:48.303Z,1041.10
2023-12-14T03:35:48.263Z,1207.10
2023-12-14T03:36:48.270Z,1221.30
2023-12-14T03:37:48.268Z,1245.30
2023-12-14T03:38:48.222Z,1226.00
2023-12-14T03:39:48.228Z,1266.00
2023-12-14T03:40:48.262Z,1091.80
2023-12-14T03:41:48.770Z,1111.90
2023-12-14T03:42:48.177Z,1064.10
2023-12-14T03:43:48.188Z,1065.20
2023-12-14T03:44:48.155Z,1045.20
2023-12-14T03:45:48.202Z,1034.80
2023-12-14T03:46:48.158Z,1082.80
2023-12-14T03:47:48.132Z,1233.00
2023-12-14T03:48:48.177Z,1197.80
2023-12-14T03:49:48.141Z,1217.20
2023-12-14T03:50:48.095Z,1926.50
2023-12-14T03:51:48.067Z,1157.40
2023-12-14T03:52:48.094Z,1113.00
2023-12-14T03:53:48.047Z,1076.20
2023-12-14T03:54:48.077Z,1053.70
2023-12-14T03:55:48.060Z,1031.90
2023-12-14T03:56:48.021Z,1018.30
2023-12-14T03:57:48.001Z,1089.00
2023-12-14T03:58:48.015Z,1356.80
2023-12-14T03:59:48.011Z,1202.90
2023-12-14T04:00:48.004Z,1114.90
2023-12-14T04:01:47.997Z,1116.70
2023-12-14T04:02:48.013Z,1047.20
2023-12-14T04:03:47.944Z,1015.60
2023-12-14T04:04:48.046Z,1099.00
2023-12-14T04:05:47.999Z,1059.80
2023-12-14T04:06:47.915Z,1148.50
2023-12-14T04:07:47.938Z,1088.80
2023-12-14T04:08:47.876Z,1036.60
2023-12-14T04:09:47.884Z,1056.20
2023-12-14T04:10:47.874Z,1032.60
2023-12-14T04:11:47.846Z,1098.90
2023-12-14T04:12:47.848Z,1106.90
2023-12-14T04:13:47.864Z,1140.80
2023-12-14T04:14:47.825Z,1200.60
2023-12-14T04:15:47.809Z,1223.40
2023-12-14T04:16:47.814Z,1999.90
2023-12-14T04:17:47.931Z,1225.80
2023-12-14T04:18:47.883Z,1146.50
2023-12-14T04:19:47.788Z,1152.00
2023-12-14T04:20:47.766Z,1083.80
2023-12-14T04:21:47.789Z,1133.40
2023-12-14T04:22:47.792Z,1133.40
2023-12-14T04:23:47.733Z,1048.30
2023-12-14T04:24:47.699Z,1049.00
2023-12-14T04:25:47.756Z,1034.10
2023-12-14T04:26:47.679Z,1129.10
2023-12-14T04:27:47.693Z,1083.50
2023-12-14T04:28:47.715Z,1058.90
2023-12-14T04:29:47.688Z,1054.10
2023-12-14T04:30:47.671Z,1131.10
2023-12-14T04:31:47.654Z,1125.50
2023-12-14T04:32:47.716Z,1086.20
2023-12-14T04:33:47.680Z,1090.60
2023-12-14T04:34:47.639Z,1019.30
2023-12-14T04:35:47.581Z,1113.40
2023-12-14T04:36:47.601Z,1046.30
2023-12-14T04:37:47.738Z,1043.70
2023-12-14T04:38:47.723Z,1059.30
2023-12-14T04:39:47.538Z,1149.80
2023-12-14T04:40:47.548Z,1143.10
2023-12-14T04:41:47.514Z,1058.60
2023-12-14T04:42:47.522Z,1083.10
2023-12-14T04:43:47.530Z,1082.40
2023-12-14T04:44:47.472Z,1067.50
2023-12-14T04:45:47.471Z,1086.00
2023-12-14T04:46:47.558Z,1092.20
2023-12-14T04:47:47.475Z,1065.30
2023-12-14T04:48:47.447Z,1038.50
2023-12-14T04:49:47.467Z,1107.20
2023-12-14T04:50:47.417Z,1083.30
2023-12-14T04:51:47.428Z,1078.10
2023-12-14T04:52:47.432Z,1093.20
2023-12-14T04:53:47.385Z,1058.30
2023-12-14T04:54:47.367Z,1084.30
2023-12-14T04:55:47.420Z,1044.80
2023-12-14T04:56:47.382Z,1046.60
2023-12-14T04:57:47.330Z,1073.70
2023-12-14T04:58:47.369Z,1080.00
2023-12-14T04:59:47.315Z,1053.60
2023-12-14T05:00:47.317Z,1380.90
2023-12-14T05:01:47.306Z,1348.50
2023-12-14T05:02:47.279Z,1263.40
2023-12-14T05:03:47.295Z,1092.00
2023-12-14T05:04:47.312Z,1104.60
2023-12-14T05:05:47.284Z,1069.90
2023-12-14T05:06:47.246Z,1083.40
2023-12-14T05:07:47.245Z,1025.50
2023-12-14T05:08:47.224Z,1101.40
2023-12-14T05:09:47.200Z,1095.30
2023-12-14T05:10:47.215Z,1123.60
2023-12-14T05:11:47.176Z,1066.60
2023-12-14T05:12:47.168Z,1149.30
2023-12-14T05:13:47.213Z,1074.60
2023-12-14T05:14:47.159Z,1080.70
2023-12-14T05:15:47.141Z,1076.40
2023-12-14T05:16:47.135Z,1070.20
2023-12-14T05:17:47.147Z,1132.50
2023-12-14T05:18:47.142Z,1133.00
2023-12-14T05:19:47.111Z,1139.10
2023-12-14T05:20:47.145Z,1074.40
2023-12-14T05:21:47.061Z,1071.10
2023-12-14T05:22:47.073Z,1082.40
2023-12-14T05:23:47.036Z,1079.00
2023-12-14T05:24:47.061Z,1075.40
2023-12-14T05:25:47.048Z,1080.90
2023-12-14T05:26:47.015Z,1060.40
2023-12-14T05:27:46.998Z,1047.30
2023-12-14T05:28:47.050Z,1042.90
2023-12-14T05:29:46.986Z,1098.90
2023-12-14T05:30:46.985Z,1105.10
2023-12-14T05:31:46.961Z,1074.30
2023-12-14T05:32:46.994Z,1110.10
2023-12-14T05:33:47.028Z,1087.00
2023-12-14T05:34:46.948Z,1160.70
2023-12-14T05:35:46.927Z,1147.10
2023-12-14T05:36:46.916Z,1159.50
2023-12-14T05:37:46.929Z,1122.70
2023-12-14T05:38:46.898Z,1119.90
2023-12-14T05:39:46.858Z,1154.00
2023-12-14T05:40:46.918Z,1241.90
2023-12-14T05:41:46.839Z,1291.80
2023-12-14T05:42:46.863Z,1301.30
2023-12-14T05:43:46.853Z,1286.00
2023-12-14T05:44:46.810Z,1139.70
2023-12-14T05:45:46.786Z,1114.10
2023-12-14T05:46:46.795Z,1132.40
2023-12-14T05:47:46.834Z,1099.40
2023-12-14T05:48:46.772Z,1209.30
2023-12-14T05:49:46.749Z,1230.90
2023-12-14T05:50:46.735Z,1269.70
2023-12-14T05:51:46.723Z,1297.50
2023-12-14T05:52:46.777Z,1266.10
2023-12-14T05:53:46.705Z,1151.30
2023-12-14T05:54:46.696Z,1159.50
2023-12-14T05:55:46.703Z,1178.20
2023-12-14T05:56:46.705Z,1176.90
2023-12-14T05:57:46.673Z,1269.40
2023-12-14T05:58:46.717Z,1230.30
2023-12-14T05:59:46.636Z,1170.90
2023-12-14T06:00:46.723Z,1188.80
2023-12-14T06:01:46.771Z,1190.80
2023-12-14T06:02:46.728Z,1147.80
2023-12-14T06:03:46.631Z,1146.90
2023-12-14T06:04:46.598Z,1166.00
2023-12-14T06:05:46.698Z,1208.80
2023-12-14T06:06:46.570Z,1214.60
2023-12-14T06:07:46.570Z,1289.50
2023-12-14T06:08:46.548Z,1752.50
2023-12-14T06:09:46.534Z,1343.30
2023-12-14T06:10:46.567Z,1399.00
2023-12-14T06:11:46.521Z,1270.20
2023-12-14T06:12:46.516Z,1273.30
2023-12-14T06:13:46.529Z,1151.70
2023-12-14T06:14:46.510Z,1159.60
2023-12-14T06:15:46.483Z,1143.80
2023-12-14T06:16:46.477Z,1183.90
2023-12-14T06:17:46.479Z,1132.60
2023-12-14T06:18:46.470Z,1098.50
2023-12-14T06:19:46.428Z,1090.50
2023-12-14T06:20:46.424Z,1095.10
2023-12-14T06:21:46.408Z,1133.00
2023-12-14T06:22:46.445Z,1155.00
2023-12-14T06:23:47.756Z,1210.10
2023-12-14T06:24:46.381Z,1109.50
2023-12-14T06:25:46.368Z,1127.90
2023-12-14T06:26:46.351Z,1124.40
2023-12-14T06:27:46.382Z,1089.90
2023-12-14T06:28:46.334Z,1152.30
2023-12-14T06:29:46.329Z,1128.90
2023-12-14T06:30:46.388Z,1123.20
2023-12-14T06:31:46.313Z,1076.80
2023-12-14T06:32:46.418Z,1079.90
2023-12-14T06:33:46.331Z,1126.40
2023-12-14T06:34:46.290Z,1125.90
2023-12-14T06:35:46.239Z,1155.70
2023-12-14T06:36:46.218Z,1107.20
2023-12-14T06:37:46.213Z,1069.20
2023-12-14T06:38:46.220Z,1069.40
2023-12-14T06:39:46.211Z,1139.50
2023-12-14T06:40:46.229Z,1126.70
2023-12-14T06:41:46.163Z,1078.80
2023-12-14T06:42:46.163Z,1072.00
2023-12-14T06:43:46.195Z,1182.10
2023-12-14T06:44:46.164Z,1151.80
2023-12-14T06:45:46.119Z,1088.50
2023-12-14T06:46:46.162Z,1165.60
2023-12-14T06:47:46.154Z,1144.80
2023-12-14T06:48:46.279Z,1125.20
2023-12-14T06:49:46.131Z,1110.90
2023-12-14T06:50:48.972Z,1121.50
2023-12-14T06:51:46.057Z,1095.90
2023-12-14T06:52:46.059Z,1092.40
2023-12-14T06:53:46.048Z,1053.70
2023-12-14T06:54:46.017Z,1103.50
2023-12-14T06:55:46.033Z,1113.80
2023-12-14T06:56:46.005Z,1080.90
2023-12-14T06:57:46.014Z,1112.30
2023-12-14T06:58:46.026Z,1072.20
2023-12-14T06:59:45.970Z,1096.60
2023-12-14T07:00:45.987Z,1088.10
2023-12-14T07:01:45.994Z,1118.70
2023-12-14T07:02:45.948Z,1104.20
2023-12-14T07:03:46.116Z,1143.80
2023-12-14T07:04:45.917Z,1062.70
2023-12-14T07:05:45.959Z,1095.00
2023-12-14T07:06:45.883Z,1146.70
2023-12-14T07:07:45.918Z,1088.80
2023-12-14T07:08:45.908Z,1154.80
2023-12-14T07:09:45.852Z,1113.80
2023-12-14T07:10:45.877Z,1091.10
2023-12-14T07:11:45.845Z,1067.70
2023-12-14T07:12:45.896Z,1089.30
2023-12-14T07:13:45.826Z,1077.00
2023-12-14T07:14:45.796Z,1052.40
2023-12-14T07:15:45.790Z,1057.90
2023-12-14T07:16:45.891Z,1039.10
2023-12-14T07:17:45.860Z,1038.30
2023-12-14T07:18:45.908Z,1049.90
2023-12-14T07:19:45.781Z,1031.20
2023-12-14T07:20:45.734Z,1025.10
2023-12-14T07:21:45.736Z,1049.00
2023-12-14T07:22:45.740Z,1057.10
2023-12-14T07:23:45.710Z,1072.20
2023-12-14T07:24:52.688Z,1070.70
2023-12-14T07:25:46.718Z,1073.10
2023-12-14T07:26:45.683Z,1117.70
2023-12-14T07:27:45.657Z,1050.60
2023-12-14T07:28:45.676Z,1075.10
2023-12-14T07:29:45.629Z,1067.40
2023-12-14T07:30:45.644Z,1102.90
2023-12-14T07:31:45.650Z,1176.80
2023-12-14T07:32:45.643Z,1755.40
2023-12-14T07:33:45.688Z,1023.10
2023-12-14T07:34:45.637Z,1101.80
2023-12-14T07:35:45.602Z,1068.20
2023-12-14T07:36:45.561Z,1113.90
2023-12-14T07:37:45.620Z,1152.30
2023-12-14T07:38:45.548Z,1147.90
2023-12-14T07:39:45.539Z,1123.60
2023-12-14T07:40:45.530Z,1093.00
2023-12-14T07:41:45.510Z,1135.40
2023-12-14T07:42:45.489Z,1166.30
2023-12-14T07:43:45.486Z,1143.20
2023-12-14T07:44:45.501Z,1152.50
2023-12-14T07:45:45.482Z,1137.50
2023-12-14T07:46:45.465Z,1106.90
2023-12-14T07:47:45.570Z,1090.50
2023-12-14T07:48:45.517Z,1150.90
2023-12-14T07:49:45.445Z,1095.40
2023-12-14T07:50:45.398Z,1088.30
2023-12-14T07:51:45.386Z,1129.40
2023-12-14T07:52:45.409Z,1118.70
2023-12-14T07:53:45.384Z,1098.40
2023-12-14T07:54:45.370Z,1104.60
2023-12-14T07:55:45.370Z,1242.40
2023-12-14T07:56:45.327Z,1266.60
2023-12-14T07:57:45.316Z,1205.00
2023-12-14T07:58:45.389Z,1294.70
2023-12-14T07:59:45.386Z,1328.60
2023-12-14T08:00:45.289Z,1349.60
2023-12-14T08:01:45.355Z,1330.60
2023-12-14T08:02:45.281Z,1354.00
2023-12-14T08:03:45.403Z,1333.90
2023-12-14T08:04:45.289Z,1232.90
2023-12-14T08:05:45.286Z,1324.30
2023-12-14T08:06:45.217Z,1357.00
2023-12-14T08:07:45.283Z,1293.60
2023-12-14T08:08:45.206Z,1357.90
2023-12-14T08:09:45.188Z,1356.60
2023-12-14T08:10:45.189Z,1321.10
2023-12-14T08:11:45.165Z,1349.20
2023-12-14T08:12:45.305Z,1332.90
2023-12-14T08:13:45.158Z,1311.40
2023-12-14T08:14:45.160Z,1240.50
2023-12-14T08:15:45.118Z,1360.30
2023-12-14T08:16:45.134Z,1340.60
2023-12-14T08:17:45.127Z,1340.90
2023-12-14T08:18:45.123Z,1257.70
2023-12-14T08:19:45.102Z,1327.10
2023-12-14T08:20:45.164Z,1372.90
2023-12-14T08:21:45.060Z,1403.20
2023-12-14T08:22:45.216Z,1369.40
2023-12-14T08:23:45.042Z,1360.00
2023-12-14T08:24:45.013Z,1256.70
2023-12-14T08:25:45.026Z,1271.30
2023-12-14T08:26:45.010Z,1394.40
2023-12-14T08:27:45.169Z,1331.90
2023-12-14T08:28:45.004Z,1382.30
2023-12-14T08:29:44.969Z,1331.70
2023-12-14T08:30:44.978Z,1272.30
2023-12-14T08:31:44.963Z,1353.40
2023-12-14T08:32:45.000Z,1348.60
2023-12-14T08:33:47.493Z,1313.70
2023-12-14T08:34:44.957Z,1254.80
2023-12-14T08:35:44.906Z,1285.50
2023-12-14T08:36:44.920Z,1381.10
2023-12-14T08:37:44.928Z,1374.30
2023-12-14T08:38:44.861Z,1340.30
2023-12-14T08:39:44.858Z,1283.70
2023-12-14T08:40:44.871Z,1308.30
2023-12-14T08:41:44.824Z,1378.30
2023-12-14T08:42:44.814Z,1345.30
2023-12-14T08:43:44.884Z,1354.30
2023-12-14T08:44:44.793Z,1394.20
2023-12-14T08:45:44.800Z,1313.20
2023-12-14T08:46:44.793Z,1283.90
2023-12-14T08:47:44.788Z,1366.80
2023-12-14T08:48:44.768Z,1373.60
2023-12-14T08:49:44.780Z,1337.60
2023-12-14T08:50:44.746Z,1303.80
2023-12-14T08:51:44.752Z,1269.20
2023-12-14T08:52:44.789Z,1273.20
2023-12-14T08:53:44.710Z,1230.40
2023-12-14T08:54:44.691Z,1372.40
2023-12-14T08:55:44.706Z,1359.60
2023-12-14T08:56:44.656Z,1351.40
2023-12-14T08:57:44.651Z,1264.00
2023-12-14T08:58:44.642Z,1275.90
2023-12-14T08:59:44.979Z,1260.70
2023-12-14T09:00:44.636Z,1248.50
2023-12-14T09:01:44.857Z,1228.20
2023-12-14T09:02:44.700Z,1250.30
2023-12-14T09:03:44.676Z,1245.90
2023-12-14T09:04:44.612Z,1210.70
2023-12-14T09:05:44.679Z,1265.30
2023-12-14T09:06:44.543Z,1187.90
2023-12-14T09:07:44.637Z,1213.70
2023-12-14T09:08:44.650Z,1188.30
2023-12-14T09:09:44.511Z,1290.60
2023-12-14T09:10:44.541Z,1111.30
2023-12-14T09:11:44.496Z,1158.10
2023-12-14T09:12:44.494Z,1220.30
2023-12-14T09:13:44.490Z,1273.80
2023-12-14T09:14:44.462Z,1348.70
2023-12-14T09:15:44.448Z,1312.70
2023-12-14T09:16:44.453Z,1126.00
2023-12-14T09:17:44.889Z,1200.70
2023-12-14T09:18:44.549Z,1211.30
2023-12-14T09:19:44.494Z,1210.10
2023-12-14T09:20:44.389Z,1267.40
2023-12-14T09:21:46.758Z,1126.10
2023-12-14T09:22:44.384Z,1143.70
2023-12-14T09:23:44.361Z,1162.00
2023-12-14T09:24:44.395Z,1135.40
2023-12-14T09:25:44.358Z,1139.30
2023-12-14T09:26:44.318Z,1156.30
2023-12-14T09:27:44.329Z,1162.70
2023-12-14T09:28:44.318Z,1111.60
2023-12-14T09:29:44.293Z,1216.10
2023-12-14T09:30:44.324Z,1103.20
2023-12-14T09:31:44.957Z,1282.60
2023-12-14T09:32:44.393Z,1281.60
2023-12-14T09:33:44.336Z,1173.20
2023-12-14T09:34:44.269Z,1213.30
2023-12-14T09:35:44.227Z,1213.90
2023-12-14T09:36:44.225Z,1174.50
2023-12-14T09:37:44.217Z,1220.00
2023-12-14T09:38:44.189Z,1123.80
2023-12-14T09:39:44.177Z,1138.30
2023-12-14T09:40:44.267Z,1143.20
2023-12-14T09:41:44.168Z,1222.80
2023-12-14T09:42:44.153Z,1166.70
2023-12-14T09:43:44.198Z,1191.50
2023-12-14T09:44:44.137Z,1338.70
2023-12-14T09:45:44.119Z,1341.70
2023-12-14T09:46:44.114Z,1209.80
2023-12-14T09:47:44.252Z,1189.60
2023-12-14T09:48:44.156Z,1238.90
2023-12-14T09:49:44.143Z,1322.50
2023-12-14T09:50:44.064Z,1283.10
2023-12-14T09:51:44.043Z,1346.50
2023-12-14T09:52:44.046Z,1320.80
2023-12-14T09:53:44.021Z,1240.20
2023-12-14T09:54:44.036Z,1248.00
2023-12-14T09:55:44.047Z,1279.40
2023-12-14T09:56:44.009Z,1255.70
2023-12-14T09:57:43.981Z,1433.50
2023-12-14T09:58:44.011Z,1378.30
2023-12-14T09:59:43.978Z,1223.00
2023-12-14T10:00:43.982Z,1219.10
2023-12-14T10:01:45.781Z,1226.50
2023-12-14T10:02:43.940Z,1255.60
2023-12-14T10:03:43.944Z,1255.90
2023-12-14T10:04:44.027Z,1312.00
2023-12-14T10:05:44.012Z,1269.10
2023-12-14T10:06:43.930Z,1309.30
2023-12-14T10:07:43.889Z,1377.90
2023-12-14T10:08:43.873Z,1360.40
2023-12-14T10:09:43.854Z,1292.80
2023-12-14T10:10:43.852Z,1341.10
2023-12-14T10:11:43.828Z,1326.80
2023-12-14T10:12:43.832Z,1389.40
2023-12-14T10:13:43.891Z,1378.70
2023-12-14T10:14:43.781Z,1268.50
2023-12-14T10:15:43.791Z,1247.10
2023-12-14T10:16:43.816Z,1373.00
2023-12-14T10:17:43.929Z,1406.50
2023-12-14T10:18:43.849Z,1407.80
2023-12-14T10:19:43.876Z,1312.10
2023-12-14T10:20:43.726Z,1302.80
2023-12-14T10:21:43.741Z,1416.90
2023-12-14T10:22:43.731Z,1405.90
2023-12-14T10:23:43.704Z,1338.50
2023-12-14T10:24:43.673Z,1319.90
2023-12-14T10:25:43.702Z,1404.00
2023-12-14T10:26:43.656Z,1377.20
2023-12-14T10:27:43.656Z,1378.10
2023-12-14T10:28:43.738Z,1308.10
2023-12-14T10:29:43.626Z,1379.20
2023-12-14T10:30:43.735Z,1409.90
2023-12-14T10:31:43.619Z,1380.00
2023-12-14T10:32:43.770Z,1379.60
2023-12-14T10:33:43.659Z,1369.20
2023-12-14T10:34:43.621Z,1334.70
2023-12-14T10:35:43.582Z,1349.70
2023-12-14T10:36:43.584Z,1404.00
2023-12-14T10:37:43.616Z,1406.00
2023-12-14T10:38:43.523Z,1436.70
2023-12-14T10:39:43.533Z,1376.80
2023-12-14T10:40:43.533Z,1408.70
2023-12-14T10:41:43.504Z,1352.80
2023-12-14T10:42:43.528Z,1393.80
2023-12-14T10:43:49.092Z,1379.90
2023-12-14T10:45:05.071Z,1402.40
2023-12-14T10:45:44.488Z,1429.80
2023-12-14T10:46:43.451Z,1381.10
2023-12-14T10:47:45.229Z,1361.70
2023-12-14T10:48:43.438Z,1388.30
2023-12-14T10:49:43.413Z,1404.60
2023-12-14T10:50:43.407Z,1476.90
2023-12-14T10:51:44.390Z,1388.40
2023-12-14T10:52:43.386Z,1365.20
2023-12-14T10:53:43.353Z,1425.20
2023-12-14T10:54:43.343Z,1425.00
2023-12-14T10:55:43.389Z,1402.00
2023-12-14T10:56:43.330Z,1386.60
2023-12-14T10:57:44.731Z,1489.20
2023-12-14T10:58:43.296Z,1411.80
2023-12-14T10:59:43.288Z,1394.20
2023-12-14T11:00:43.386Z,1378.70
2023-12-14T11:01:43.308Z,1364.10
2023-12-14T11:02:43.260Z,1401.20
2023-12-14T11:03:43.816Z,1411.60
2023-12-14T11:04:43.348Z,1413.40
2023-12-14T11:05:43.340Z,1381.50
2023-12-14T11:06:43.242Z,1395.00
2023-12-14T11:07:43.212Z,1426.50
2023-12-14T11:08:44.168Z,1419.20
2023-12-14T11:09:43.182Z,1399.00
2023-12-14T11:10:43.385Z,1384.10
2023-12-14T11:11:43.149Z,1389.50
2023-12-14T11:12:43.150Z,1362.90
2023-12-14T11:13:43.870Z,1415.90
2023-12-14T11:14:43.235Z,1439.80
2023-12-14T11:15:45.936Z,1416.20
2023-12-14T11:16:46.880Z,1384.60
2023-12-14T11:17:43.159Z,1444.40
2023-12-14T11:18:43.201Z,1420.10
2023-12-14T11:19:43.105Z,1403.90
2023-12-14T11:20:43.050Z,1428.20
2023-12-14T11:21:43.034Z,1377.20
2023-12-14T11:22:43.038Z,1400.50
2023-12-14T11:23:43.061Z,1420.60
2023-12-14T11:24:43.055Z,1395.80
2023-12-14T11:25:46.241Z,1415.40
2023-12-14T11:26:43.018Z,1441.10
2023-12-14T11:27:42.963Z,1413.10
2023-12-14T11:28:42.984Z,1419.70
2023-12-14T11:29:43.138Z,1427.10
2023-12-14T11:30:52.169Z,1403.10
2023-12-14T11:31:44.019Z,1424.90
2023-12-14T11:32:42.969Z,1408.90
2023-12-14T11:33:44.644Z,1412.40
2023-12-14T11:34:42.920Z,1429.00
2023-12-14T11:35:42.886Z,1400.10
2023-12-14T11:36:42.890Z,1418.60
2023-12-14T11:37:42.906Z,1389.00
2023-12-14T11:38:42.858Z,1399.80
2023-12-14T11:39:42.835Z,1475.40
2023-12-14T11:40:42.848Z,1395.90
2023-12-14T11:41:42.813Z,1375.40
2023-12-14T11:42:42.811Z,1414.80
2023-12-14T11:43:42.857Z,1397.40
2023-12-14T11:44:42.912Z,1393.80
2023-12-14T11:45:42.772Z,1400.40
2023-12-14T11:46:42.780Z,1394.80
2023-12-14T11:47:43.398Z,1411.50
2023-12-14T11:48:42.836Z,1389.80
2023-12-14T11:49:42.755Z,1404.30
2023-12-14T11:50:44.020Z,1384.20
2023-12-14T11:51:42.767Z,1387.00
2023-12-14T11:52:42.717Z,1395.80
2023-12-14T11:53:42.681Z,1395.50
2023-12-14T11:54:42.666Z,1382.00
2023-12-14T11:55:42.688Z,1390.10
2023-12-14T11:56:42.667Z,1410.40
2023-12-14T11:57:42.629Z,1423.00
2023-12-14T11:58:42.650Z,1437.40
2023-12-14T11:59:42.603Z,1435.60
2023-12-14T12:00:42.727Z,1429.50
2023-12-14T12:01:42.608Z,1431.10
2023-12-14T12:02:42.597Z,1434.60
2023-12-14T12:03:42.584Z,1418.50
2023-12-14T12:04:42.640Z,1437.10
2023-12-14T12:05:42.721Z,1408.60
2023-12-14T12:06:42.606Z,1414.40